AFR1771 ESGG-ESSA
Flight info
| Callsign | AFR1771 |
|---|---|
| Flight time | 0h 39m |
| Altitude | 31000 |
| Route | ESGG/21 LABA4J LABAN N873 ARS T317 ELTOK ELTO8P ESSA/19R |
| Aircraft | A320/M-SDE3FGHIRWY/LB1 |
Departure
| Time | 2026-05-04 09:25 |
|---|---|
| Airport | Göteborg Landvetter Airport (ESGG) |
Arrival
| Time | 2026-05-04 10:05 |
|---|---|
| Airport | Stockholm-Arlanda Airport (ESSA) |
| Time | Latitude | Longitude | Altitude | Speed | Heading |
|---|---|---|---|---|---|
| 2026-05-04 09:01 | 57.66676 | 12.29237 | 526 ft | 0 kts | 116° |
| 2026-05-04 09:08 | 57.66676 | 12.29236 | 526 ft | 1 kts | 116° |
| 2026-05-04 09:09 | 57.66683 | 12.29208 | 526 ft | 2 kts | 116° |
| 2026-05-04 09:09 | 57.66691 | 12.29179 | 526 ft | 2 kts | 116° |
| 2026-05-04 09:09 | 57.66699 | 12.29151 | 526 ft | 2 kts | 115° |
| 2026-05-04 09:09 | 57.66700 | 12.29121 | 526 ft | 2 kts | 44° |
| 2026-05-04 09:10 | 57.66697 | 12.29115 | 525 ft | 0 kts | 31° |
| 2026-05-04 09:17 | 57.66870 | 12.29028 | 527 ft | 6 kts | 26° |
| 2026-05-04 09:18 | 57.66914 | 12.29068 | 527 ft | 8 kts | 26° |
| 2026-05-04 09:18 | 57.66972 | 12.29120 | 528 ft | 10 kts | 26° |
| 2026-05-04 09:18 | 57.67020 | 12.29166 | 528 ft | 7 kts | 27° |
| 2026-05-04 09:18 | 57.67035 | 12.29180 | 529 ft | 3 kts | 27° |
| 2026-05-04 09:19 | 57.67065 | 12.29208 | 529 ft | 6 kts | 27° |
| 2026-05-04 09:19 | 57.67108 | 12.29249 | 529 ft | 4 kts | 27° |
| 2026-05-04 09:19 | 57.67143 | 12.29278 | 530 ft | 7 kts | 24° |
| 2026-05-04 09:19 | 57.67155 | 12.29289 | 530 ft | 3 kts | 24° |
| 2026-05-04 09:20 | 57.67183 | 12.29312 | 530 ft | 6 kts | 24° |
| 2026-05-04 09:20 | 57.67227 | 12.29352 | 531 ft | 8 kts | 26° |
| 2026-05-04 09:20 | 57.67272 | 12.29393 | 531 ft | 6 kts | 26° |
| 2026-05-04 09:20 | 57.67302 | 12.29420 | 531 ft | 6 kts | 26° |
| 2026-05-04 09:21 | 57.67344 | 12.29460 | 532 ft | 8 kts | 26° |
| 2026-05-04 09:21 | 57.67402 | 12.29473 | 532 ft | 9 kts | 336° |
| 2026-05-04 09:21 | 57.67419 | 12.29432 | 532 ft | 0 kts | 301° |
| 2026-05-04 09:22 | 57.67421 | 12.29427 | 532 ft | 2 kts | 300° |
| 2026-05-04 09:22 | 57.67439 | 12.29368 | 532 ft | 8 kts | 297° |
| 2026-05-04 09:23 | 57.67460 | 12.29242 | 532 ft | 12 kts | 270° |
| 2026-05-04 09:23 | 57.67437 | 12.29064 | 530 ft | 16 kts | 238° |
| 2026-05-04 09:23 | 57.67324 | 12.28924 | 530 ft | 30 kts | 206° |
| 2026-05-04 09:23 | 57.66915 | 12.28548 | 526 ft | 98 kts | 206° |
| 2026-05-04 09:25 | 57.60112 | 12.26845 | 3633 ft | 211 kts | 163° |
| 2026-05-04 09:25 | 57.58683 | 12.27902 | 4171 ft | 227 kts | 163° |
| 2026-05-04 09:26 | 57.57301 | 12.29401 | 4980 ft | 240 kts | 135° |
| 2026-05-04 09:26 | 57.56741 | 12.31049 | 5466 ft | 248 kts | 111° |
| 2026-05-04 09:26 | 57.56571 | 12.34152 | 5898 ft | 272 kts | 80° |
| 2026-05-04 09:26 | 57.57108 | 12.37662 | 6453 ft | 290 kts | 65° |
| 2026-05-04 09:27 | 57.58023 | 12.41061 | 7266 ft | 296 kts | 51° |
| 2026-05-04 09:27 | 57.59428 | 12.43858 | 8176 ft | 297 kts | 39° |
| 2026-05-04 09:27 | 57.60947 | 12.46529 | 9079 ft | 302 kts | 39° |
| 2026-05-04 09:27 | 57.62491 | 12.49220 | 9921 ft | 307 kts | 39° |
| 2026-05-04 09:28 | 57.64107 | 12.52023 | 10329 ft | 329 kts | 39° |
| 2026-05-04 09:28 | 57.65838 | 12.55023 | 10725 ft | 346 kts | 39° |
| 2026-05-04 09:28 | 57.67618 | 12.58129 | 11424 ft | 353 kts | 39° |
| 2026-05-04 09:28 | 57.69423 | 12.61299 | 12187 ft | 358 kts | 39° |
| 2026-05-04 09:29 | 57.71250 | 12.64520 | 12931 ft | 364 kts | 39° |
| 2026-05-04 09:29 | 57.73102 | 12.67794 | 13668 ft | 369 kts | 39° |
| 2026-05-04 09:29 | 57.74984 | 12.71122 | 14318 ft | 374 kts | 39° |
| 2026-05-04 09:29 | 57.76888 | 12.74488 | 14689 ft | 378 kts | 39° |
| 2026-05-04 09:30 | 57.78778 | 12.77835 | 14791 ft | 379 kts | 39° |
| 2026-05-04 09:30 | 57.80695 | 12.81232 | 14818 ft | 379 kts | 39° |
| 2026-05-04 09:30 | 57.82613 | 12.84637 | 14819 ft | 379 kts | 39° |
| 2026-05-04 09:30 | 57.84529 | 12.88042 | 14806 ft | 379 kts | 40° |
| 2026-05-04 09:31 | 57.86442 | 12.91447 | 14815 ft | 380 kts | 40° |
| 2026-05-04 09:31 | 57.88360 | 12.94863 | 14804 ft | 380 kts | 40° |
| 2026-05-04 09:31 | 57.90277 | 12.98282 | 14804 ft | 380 kts | 40° |
| 2026-05-04 09:31 | 57.92207 | 13.01726 | 15353 ft | 384 kts | 40° |
| 2026-05-04 09:32 | 57.94154 | 13.05206 | 16054 ft | 387 kts | 40° |
| 2026-05-04 09:32 | 57.96119 | 13.08725 | 16712 ft | 392 kts | 40° |
| 2026-05-04 09:34 | 58.10425 | 13.34554 | 21062 ft | 419 kts | 40° |
| 2026-05-04 09:34 | 58.12514 | 13.38346 | 21640 ft | 423 kts | 40° |
| 2026-05-04 09:34 | 58.14646 | 13.42219 | 22222 ft | 427 kts | 40° |
| 2026-05-04 09:34 | 58.16791 | 13.46128 | 22824 ft | 430 kts | 40° |
| 2026-05-04 09:35 | 58.18961 | 13.50084 | 23408 ft | 434 kts | 41° |
| 2026-05-04 09:35 | 58.21141 | 13.54064 | 23894 ft | 437 kts | 41° |
| 2026-05-04 09:35 | 58.23339 | 13.58091 | 24381 ft | 440 kts | 41° |
| 2026-05-04 09:35 | 58.25542 | 13.62146 | 24866 ft | 443 kts | 41° |
| 2026-05-04 09:37 | 58.41344 | 13.91402 | 27925 ft | 464 kts | 42° |
| 2026-05-04 09:37 | 58.43664 | 13.95731 | 28347 ft | 467 kts | 42° |
| 2026-05-04 09:38 | 58.46027 | 14.00142 | 28759 ft | 470 kts | 42° |
| 2026-05-04 09:38 | 58.48338 | 14.04463 | 29159 ft | 473 kts | 42° |
| 2026-05-04 09:38 | 58.50699 | 14.08888 | 29565 ft | 476 kts | 42° |
| 2026-05-04 09:38 | 58.53066 | 14.13333 | 29943 ft | 479 kts | 42° |
| 2026-05-04 09:39 | 58.55446 | 14.17819 | 30322 ft | 481 kts | 42° |
| 2026-05-04 09:39 | 58.57838 | 14.22340 | 30642 ft | 484 kts | 42° |
| 2026-05-04 09:39 | 58.62337 | 14.31777 | 30757 ft | 467 kts | 48° |
| 2026-05-04 09:40 | 58.66414 | 14.41204 | 30760 ft | 459 kts | 48° |
| 2026-05-04 09:40 | 58.70479 | 14.50635 | 30757 ft | 458 kts | 49° |
| 2026-05-04 09:42 | 58.86715 | 14.88681 | 30742 ft | 462 kts | 49° |
| 2026-05-04 09:43 | 58.90786 | 14.98298 | 30744 ft | 462 kts | 49° |
| 2026-05-04 09:43 | 58.94846 | 15.07948 | 30744 ft | 462 kts | 49° |
| 2026-05-04 09:44 | 58.98907 | 15.17624 | 30742 ft | 466 kts | 49° |
| 2026-05-04 09:44 | 59.00968 | 15.22547 | 30337 ft | 472 kts | 49° |
| 2026-05-04 09:46 | 59.14194 | 15.54505 | 26639 ft | 395 kts | 50° |
| 2026-05-04 09:46 | 59.15922 | 15.58713 | 26246 ft | 398 kts | 50° |
| 2026-05-04 09:46 | 59.17627 | 15.62870 | 25833 ft | 397 kts | 49° |
| 2026-05-04 09:47 | 59.19374 | 15.67126 | 25427 ft | 396 kts | 49° |
| 2026-05-04 09:47 | 59.21086 | 15.71301 | 25048 ft | 394 kts | 49° |
| 2026-05-04 09:49 | 59.32927 | 16.00467 | 22153 ft | 388 kts | 49° |
| 2026-05-04 09:49 | 59.34591 | 16.04601 | 21738 ft | 386 kts | 49° |
| 2026-05-04 09:49 | 59.36250 | 16.08721 | 21322 ft | 385 kts | 49° |
| 2026-05-04 09:51 | 59.46074 | 16.33271 | 18832 ft | 379 kts | 49° |
| 2026-05-04 09:51 | 59.47674 | 16.37288 | 18423 ft | 378 kts | 49° |
| 2026-05-04 09:51 | 59.49290 | 16.41352 | 18002 ft | 377 kts | 49° |
| 2026-05-04 09:51 | 59.50905 | 16.45423 | 17538 ft | 376 kts | 50° |
| 2026-05-04 09:52 | 59.52507 | 16.49472 | 17145 ft | 373 kts | 50° |
| 2026-05-04 09:52 | 59.54092 | 16.53497 | 16728 ft | 370 kts | 50° |
| 2026-05-04 09:52 | 59.55662 | 16.57494 | 16318 ft | 367 kts | 50° |
| 2026-05-04 09:52 | 59.57223 | 16.61458 | 15907 ft | 365 kts | 50° |
| 2026-05-04 09:53 | 59.58901 | 16.65176 | 15503 ft | 360 kts | 39° |
| 2026-05-04 09:53 | 59.60851 | 16.68190 | 15104 ft | 354 kts | 31° |
| 2026-05-04 09:53 | 59.62855 | 16.71012 | 14711 ft | 352 kts | 31° |
| 2026-05-04 09:53 | 59.64845 | 16.73829 | 14307 ft | 351 kts | 31° |
| 2026-05-04 09:54 | 59.66821 | 16.76634 | 13908 ft | 349 kts | 31° |
| 2026-05-04 09:54 | 59.68791 | 16.79436 | 13518 ft | 348 kts | 32° |
| 2026-05-04 09:54 | 59.70748 | 16.82228 | 13079 ft | 346 kts | 32° |
| 2026-05-04 09:54 | 59.72667 | 16.84973 | 12689 ft | 343 kts | 32° |
| 2026-05-04 09:55 | 59.74590 | 16.87728 | 12273 ft | 340 kts | 32° |
| 2026-05-04 09:55 | 59.76501 | 16.90467 | 11889 ft | 338 kts | 32° |
| 2026-05-04 09:55 | 59.78398 | 16.93189 | 11495 ft | 335 kts | 32° |
| 2026-05-04 09:55 | 59.80226 | 16.96037 | 11099 ft | 335 kts | 41° |
| 2026-05-04 09:56 | 59.81678 | 16.99651 | 10721 ft | 337 kts | 58° |
| 2026-05-04 09:56 | 59.82611 | 17.03910 | 10345 ft | 336 kts | 75° |
| 2026-05-04 09:56 | 59.82984 | 17.08421 | 10204 ft | 326 kts | 84° |
| 2026-05-04 09:56 | 59.83235 | 17.12878 | 9917 ft | 322 kts | 84° |
| 2026-05-04 09:57 | 59.83489 | 17.17274 | 9592 ft | 320 kts | 83° |
| 2026-05-04 09:57 | 59.83706 | 17.21659 | 9230 ft | 316 kts | 89° |
| 2026-05-04 09:57 | 59.83500 | 17.25945 | 8585 ft | 309 kts | 105° |
| 2026-05-04 09:57 | 59.82774 | 17.29900 | 8029 ft | 300 kts | 120° |
| 2026-05-04 09:58 | 59.81760 | 17.33484 | 7671 ft | 297 kts | 122° |
| 2026-05-04 09:58 | 59.80755 | 17.37050 | 7320 ft | 295 kts | 122° |
| 2026-05-04 09:58 | 59.79762 | 17.40597 | 6966 ft | 293 kts | 122° |
| 2026-05-04 10:00 | 59.76316 | 17.66185 | 4524 ft | 290 kts | 63° |
| 2026-05-04 10:00 | 59.77182 | 17.69738 | 4403 ft | 280 kts | 64° |
| 2026-05-04 10:02 | 59.77237 | 17.92008 | 2273 ft | 210 kts | 143° |
| 2026-05-04 10:04 | 59.69204 | 17.93310 | 811 ft | 137 kts | 195° |
| 2026-05-04 10:04 | 59.68269 | 17.92965 | 563 ft | 136 kts | 193° |
| 2026-05-04 10:04 | 59.67329 | 17.92621 | 334 ft | 137 kts | 192° |
| 2026-05-04 10:04 | 59.66397 | 17.92290 | 160 ft | 134 kts | 193° |
| 2026-05-04 10:05 | 59.65615 | 17.92002 | 144 ft | 91 kts | 189° |
| 2026-05-04 10:05 | 59.65165 | 17.91837 | 143 ft | 41 kts | 190° |
| 2026-05-04 10:05 | 59.64971 | 17.91767 | 143 ft | 19 kts | 191° |
| 2026-05-04 10:05 | 59.64841 | 17.91712 | 145 ft | 17 kts | 192° |
| 2026-05-04 10:06 | 59.64727 | 17.91706 | 145 ft | 15 kts | 177° |
| 2026-05-04 10:06 | 59.64649 | 17.91726 | 145 ft | 11 kts | 169° |
| 2026-05-04 10:06 | 59.64554 | 17.91773 | 141 ft | 14 kts | 165° |
| 2026-05-04 10:08 | 59.64338 | 17.92508 | 138 ft | 9 kts | 32° |
| 2026-05-04 10:08 | 59.64389 | 17.92587 | 138 ft | 10 kts | 44° |
| 2026-05-04 10:08 | 59.64418 | 17.92661 | 138 ft | 2 kts | 54° |
| 2026-05-04 10:08 | 59.64425 | 17.92681 | 138 ft | 0 kts | 53° |